Data for 01/23/2006

Time Sea-Level Adjusted Pressure Absolute Pressure Temperature Relative Humidity Dew Point   
(mb) (inHg) (mb) (inHg) (C) (F) (%) (C) (F)
00:05 1023 30.21 852 25.16 -0.8 30.5 59 -7.8 17.9
00:10 1023 30.21 852 25.16 -0.7 30.8 58 -8 17.6
00:15 1023 30.21 852 25.16 -0.6 31 58 -7.9 17.8
00:20 1023 30.21 852 25.16 -0.6 30.9 59 -7.6 18.2
00:25 1023 30.21 852 25.16 -0.7 30.8 60 -7.5 18.5
00:30 1022 30.18 852 25.16 -0.7 30.7 61 -7.4 18.7
00:35 1022 30.18 852 25.16 -0.4 31.3 58 -7.6 18.3
00:40 1022 30.18 852 25.16 -0.1 31.8 58 -7.5 18.5
00:45 1022 30.18 851 25.13 -0 31.9 57 -7.5 18.5
00:50 1022 30.18 851 25.13 -0.3 31.4 59 -7.3 18.8
00:55 1022 30.18 851 25.13 -0.6 30.9 61 -7.2 19
01:00 1022 30.18 851 25.13 -0.8 30.6 61 -7.3 18.9
01:05 1022 30.18 851 25.13 -0.9 30.4 61 -7.4 18.7
01:10 1022 30.18 851 25.13 -1 30.3 61 -7.5 18.4
01:15 1022 30.18 851 25.13 -1.1 30.1 61 -7.6 18.4
01:20 1022 30.18 851 25.13 -1.1 30.1 62 -7.4 18.6
01:25 1022 30.18 851 25.13 -1.1 29.9 63 -7.4 18.7
01:30 1022 30.18 851 25.13 -1.1 30 63 -7.2 19
01:35 1022 30.18 851 25.13 -1.2 29.9 63 -7.2 19
01:40 1022 30.18 851 25.13 -1.1 30 62 -7.4 18.7
01:45 1022 30.18 851 25.13 -1 30.2 62 -7.5 18.5
01:50 1022 30.18 851 25.13 -1 30.3 61 -7.6 18.4
01:55 1022 30.18 851 25.13 -1.1 30 61 -7.6 18.3
02:00 1022 30.18 851 25.13 -1.1 30 62 -7.5 18.5
02:05 1022 30.18 851 25.13 -1.1 29.9 62 -7.4 18.6
02:10 1022 30.18 851 25.13 -1.2 29.9 62 -7.5 18.4
02:15 1022 30.18 851 25.13 -1.1 30 62 -7.5 18.6
02:20 1022 30.18 851 25.13 -1 30.1 61 -7.5 18.4
02:25 1022 30.18 851 25.13 -0.9 30.4 63 -7.2 19.1
02:30 1022 30.18 851 25.13 -1 30.2 63 -7.2 19.1
02:35 1022 30.18 851 25.13 -0.9 30.3 63 -7.1 19.3
02:40 1022 30.18 851 25.13 -0.8 30.5 62 -7.3 18.8
02:45 1022 30.18 851 25.13 -0.7 30.7 60 -7.5 18.5
02:50 1022 30.18 851 25.13 -0.6 31 60 -7.4 18.8
02:55 1022 30.18 851 25.13 -0.6 31 60 -7.3 18.8
03:00 1022 30.18 851 25.13 -0.6 31 61 -7.2 19
03:05 1022 30.18 851 25.13 -0.6 31 60 -7.3 18.8
03:10 1022 30.18 851 25.13 -0.5 31 60 -7.4 18.7
03:15 1022 30.18 851 25.13 -0.5 31.1 60 -7.3 18.9
03:20 1022 30.18 851 25.13 -0.5 31.1 60 -7.3 18.9
03:25 1022 30.18 851 25.13 -0.5 31.1 61 -7.1 19.2
03:30 1021 30.15 851 25.13 -0.6 30.8 62 -7 19.4
03:35 1021 30.15 851 25.13 -0.7 30.8 62 -7 19.4
03:40 1022 30.18 851 25.13 -0.7 30.7 63 -7 19.4
03:45 1022 30.18 851 25.13 -0.7 30.7 62 -7.2 19.1
03:50 1022 30.18 851 25.13 -0.8 30.6 61 -7.4 18.7
03:55 1022 30.18 851 25.13 -0.7 30.7 61 -7.5 18.6
04:00 1022 30.18 851 25.13 -0.7 30.7 61 -7.3 18.9
04:05 1022 30.18 851 25.13 -0.8 30.6 62 -7.1 19.2
04:10 1022 30.18 851 25.13 -0.9 30.4 63 -7.1 19.2
04:15 1022 30.18 851 25.13 -0.8 30.6 61 -7.3 18.8
04:20 1022 30.18 851 25.13 -0.5 31.1 60 -7.3 18.9
04:25 1022 30.18 851 25.13 -0.3 31.5 60 -7.2 19.1
04:30 1021 30.15 851 25.13 -0.2 31.6 58 -7.5 18.5
04:35 1021 30.15 851 25.13 -0 32 59 -7.2 19.1
04:40 1021 30.15 850 25.1 -0.1 31.8 59 -7.1 19.2
04:45 1021 30.15 850 25.1 -0.3 31.5 60 -7.2 19.1
04:50 1021 30.15 851 25.13 -0.3 31.4 61 -7 19.3
04:55 1021 30.15 851 25.13 -0.4 31.3 61 -7 19.4
05:00 1021 30.15 851 25.13 -0.3 31.4 61 -7 19.5
05:05 1021 30.15 851 25.13 -0.2 31.6 60 -7 19.4
05:10 1021 30.15 851 25.13 0.1 32.1 61 -6.6 20
05:15 1022 30.18 851 25.13 -0 32 62 -6.5 20.3
05:20 1022 30.18 851 25.13 -0 32 61 -6.7 19.9
05:25 1021 30.15 851 25.13 0.3 32.5 60 -6.6 20.1
05:30 1021 30.15 851 25.13 0.4 32.7 61 -6.3 20.6
05:35 1021 30.15 851 25.13 0.3 32.6 60 -6.6 20.1
05:40 1021 30.15 850 25.1 0.3 32.6 58 -6.9 19.6
05:45 1021 30.15 851 25.13 0.4 32.7 58 -6.8 19.7
05:50 1021 30.15 851 25.13 0.5 32.9 58 -6.9 19.5
05:55 1022 30.18 851 25.13 0.5 32.9 58 -6.8 19.8
06:00 1022 30.18 851 25.13 0.5 32.9 58 -6.8 19.8
06:05 1022 30.18 851 25.13 0.4 32.8 60 -6.4 20.5
06:10 1022 30.18 851 25.13 0.3 32.6 60 -6.6 20.2
06:15 1022 30.18 851 25.13 0.3 32.5 61 -6.4 20.4
06:20 1022 30.18 851 25.13 0.3 32.5 60 -6.7 20
06:25 1022 30.18 851 25.13 0.4 32.7 59 -6.6 20.1
06:30 1022 30.18 851 25.13 0.5 32.9 59 -6.6 20.2
06:35 1022 30.18 851 25.13 0.5 32.8 58 -6.8 19.8
06:40 1022 30.18 851 25.13 0.5 33 58 -6.7 19.9
06:45 1022 30.18 851 25.13 0.6 33 59 -6.5 20.4
06:50 1022 30.18 851 25.13 0.7 33.2 59 -6.4 20.5
06:55 1022 30.18 851 25.13 0.7 33.3 59 -6.4 20.5
07:00 1022 30.18 851 25.13 0.7 33.3 59 -6.4 20.4
07:05 1022 30.18 851 25.13 0.8 33.4 58 -6.5 20.3
07:10 1022 30.18 852 25.16 0.7 33.3 58 -6.6 20.1
07:15 1022 30.18 852 25.16 0.7 33.3 57 -6.9 19.6
07:20 1022 30.18 852 25.16 0.7 33.3 57 -6.8 19.8
07:25 1022 30.18 852 25.16 0.5 33 58 -6.7 20
07:30 1023 30.21 852 25.16 0.5 33 58 -6.7 19.9
07:35 1023 30.21 852 25.16 0.7 33.2 57 -6.9 19.5
07:40 1023 30.21 852 25.16 0.8 33.5 57 -6.7 20
07:45 1023 30.21 852 25.16 0.7 33.3 58 -6.7 19.9
07:50 1023 30.21 852 25.16 0.7 33.2 57 -6.8 19.7
07:55 1023 30.21 852 25.16 0.7 33.3 57 -6.9 19.6
08:00 1023 30.21 852 25.16 0.8 33.5 57 -6.6 20
08:05 1023 30.21 852 25.16 0.8 33.5 58 -6.6 20.1
08:10 1023 30.21 852 25.16 0.9 33.7 57 -6.6 20.2
08:15 1023 30.21 852 25.16 1 33.9 58 -6.4 20.5
08:20 1023 30.21 852 25.16 1.1 34 58 -6.2 20.8
08:25 1023 30.21 852 25.16 1.4 34.5 56 -6.4 20.5
08:30 1023 30.21 852 25.16 1.6 34.9 56 -6.3 20.7
08:35 1023 30.21 852 25.16 1.7 35 57 -6 21.2
08:40 1023 30.21 852 25.16 1.5 34.8 57 -6 21.2
08:45 1023 30.21 852 25.16 1.4 34.5 58 -6 21.2
08:50 1023 30.21 852 25.16 1.5 34.7 57 -6.1 20.9
08:55 1023 30.21 852 25.16 1.8 35.2 56 -6 21.1
09:00 1023 30.21 852 25.16 2.1 35.7 55 -6 21.3
09:05 1023 30.21 852 25.16 2.3 36.1 55 -5.8 21.5
09:10 1023 30.21 853 25.19 2.4 36.3 55 -5.7 21.7
09:15 1023 30.21 853 25.19 2.5 36.6 55 -5.6 22
09:20 1023 30.21 853 25.19 2.6 36.6 55 -5.5 22.1
09:25 1023 30.21 852 25.16 2.7 36.9 54 -5.7 21.8
09:30 1023 30.21 852 25.16 3 37.4 54 -5.4 22.2
09:35 1023 30.21 852 25.16 3.2 37.7 53 -5.5 22.1
09:40 1023 30.21 853 25.19 3.4 38.1 53 -5.3 22.4
09:45 1023 30.21 853 25.19 3.4 38.2 53 -5.2 22.7
09:50 1023 30.21 853 25.19 3.5 38.3 53 -5.2 22.6
09:55 1024 30.24 853 25.19 3.6 38.5 53 -5.2 22.6
10:00 1024 30.24 853 25.19 3.7 38.6 52 -5.2 22.6
10:05 1024 30.24 853 25.19 3.9 39 51 -5.2 22.6
10:10 1024 30.24 853 25.19 3.8 38.8 52 -5.2 22.7
10:15 1024 30.24 853 25.19 3.7 38.6 52 -5.2 22.6
10:20 1024 30.24 853 25.19 3.4 38.1 53 -5.3 22.4
10:25 1024 30.24 853 25.19 3.2 37.7 53 -5.4 22.2
10:30 1024 30.24 853 25.19 3 37.5 54 -5.4 22.3
10:35 1024 30.24 853 25.19 3 37.3 54 -5.4 22.3
10:40 1024 30.24 853 25.19 3 37.3 54 -5.4 22.2
10:45 1024 30.24 853 25.19 3.3 38 53 -5.4 22.3
10:50 1024 30.24 853 25.19 3.4 38.2 53 -5.3 22.5
10:55 1024 30.24 853 25.19 3.4 38.1 53 -5.2 22.6
11:00 1024 30.24 854 25.22 3.7 38.7 52 -5.2 22.6
11:05 1024 30.24 854 25.22 3.7 38.7 53 -5.1 22.9
11:10 1024 30.24 854 25.22 4.2 39.6 50 -5.3 22.4
11:15 1024 30.24 854 25.22 5.3 41.5 47 -5.2 22.6
11:20 1024 30.24 854 25.22 6.2 43.1 45 -4.8 23.4
11:25 1024 30.24 854 25.22 6.8 44.2 44 -4.6 23.8
11:30 1024 30.24 854 25.22 7.3 45.1 43 -4.5 23.8
11:35 1024 30.24 854 25.22 7.5 45.4 42 -4.7 23.5
11:40 1024 30.24 854 25.22 7.6 45.7 41 -5 23.1
11:45 1024 30.24 853 25.19 7.5 45.4 42 -4.5 23.9
11:50 1024 30.24 853 25.19 7.2 45 43 -4.6 23.7
11:55 1024 30.24 853 25.19 6.8 44.2 42 -5.1 22.7
12:00 1024 30.24 853 25.19 6.5 43.7 44 -4.8 23.4
12:05 1024 30.24 853 25.19 6.7 44.1 43 -5 23.1
12:10 1024 30.24 853 25.19 6.7 44.1 43 -4.9 23.1
12:15 1024 30.24 853 25.19 6.4 43.6 44 -4.8 23.3
12:20 1024 30.24 853 25.19 6.4 43.4 44 -5 23.1
12:25 1024 30.24 853 25.19 6.3 43.4 44 -4.9 23.1
12:30 1024 30.24 853 25.19 5.8 42.4 47 -4.6 23.8
12:35 1024 30.24 853 25.19 5.7 42.3 46 -5.1 22.8
12:40 1024 30.24 853 25.19 6 42.9 45 -5 22.9
12:45 1024 30.24 853 25.19 6.2 43.1 46 -4.7 23.5
12:50 1024 30.24 853 25.19 6 42.9 46 -4.6 23.7
12:55 1024 30.24 853 25.19 6.3 43.3 45 -4.8 23.4
13:00 1024 30.24 853 25.19 6.4 43.6 44 -4.9 23.2
13:05 1024 30.24 853 25.19 6.4 43.5 45 -4.7 23.5
13:10 1024 30.24 853 25.19 6.6 43.8 44 -4.7 23.5
13:15 1024 30.24 853 25.19 6.7 44.1 44 -4.5 23.8
13:20 1024 30.24 853 25.19 6.8 44.2 44 -4.5 23.8
13:25 1024 30.24 853 25.19 6.9 44.4 44 -4.5 23.9
13:30 1024 30.24 853 25.19 6.8 44.3 44 -4.7 23.6
13:35 1024 30.24 853 25.19 6.9 44.4 43 -4.7 23.6
13:40 1024 30.24 853 25.19 6.8 44.2 44 -4.6 23.6
13:45 1024 30.24 853 25.19 6.8 44.2 44 -4.6 23.8
13:50 1024 30.24 853 25.19 6.9 44.4 44 -4.6 23.8
13:55 1024 30.24 853 25.19 6.7 44 45 -4.5 23.9
14:00 1024 30.24 853 25.19 6.3 43.4 45 -4.7 23.5
14:05 1024 30.24 853 25.19 6.2 43.1 47 -4.3 24.2
14:10 1024 30.24 853 25.19 6.2 43.2 47 -4.2 24.4
14:15 1024 30.24 853 25.19 6.2 43.1 47 -4.2 24.5
14:20 1024 30.24 853 25.19 6.2 43.1 46 -4.5 24
14:25 1024 30.24 853 25.19 6.4 43.4 47 -4.3 24.3
14:30 1024 30.24 853 25.19 6.4 43.4 47 -4.1 24.7
14:35 1024 30.24 853 25.19 6.2 43.2 47 -4.3 24.2
14:40 1024 30.24 853 25.19 6.1 43 47 -4.4 24.2
14:45 1024 30.24 853 25.19 6.2 43.2 47 -4.2 24.5
14:50 1024 30.24 853 25.19 6.4 43.5 47 -4.1 24.7
14:55 1024 30.24 853 25.19 6.3 43.4 48 -4 24.8
15:00 1024 30.24 853 25.19 6.3 43.4 47 -4.2 24.5
15:05 1024 30.24 853 25.19 6 42.9 48 -4.2 24.4
15:10 1024 30.24 853 25.19 6.2 43.1 48 -4 24.8
15:15 1024 30.24 853 25.19 6.2 43.1 48 -4.1 24.6
15:20 1024 30.24 853 25.19 6 42.9 50 -3.5 25.6
15:25 1024 30.24 853 25.19 5.7 42.2 51 -3.6 25.6
15:30 1024 30.24 853 25.19 5.6 42.1 51 -3.6 25.5
15:35 1024 30.24 853 25.19 5.5 41.9 51 -3.9 25
15:40 1024 30.24 853 25.19 5.5 41.9 50 -4.1 24.5
15:45 1024 30.24 853 25.19 5.6 42 50 -4 24.8
15:50 1024 30.24 853 25.19 5.6 42.1 49 -4.3 24.3
15:55 1024 30.24 853 25.19 5.6 42.1 49 -4.2 24.5
16:00 1024 30.24 853 25.19 5.4 41.7 53 -3.4 25.9
16:05 1024 30.24 853 25.19 4 39.3 57 -3.8 25.1
16:10 1024 30.24 853 25.19 3.7 38.6 57 -4.1 24.7
16:15 1024 30.24 853 25.19 4 39.3 55 -4.1 24.6
16:20 1024 30.24 853 25.19 4.3 39.7 55 -3.9 25
16:25 1024 30.24 853 25.19 4.5 40.1 54 -4 24.7
16:30 1024 30.24 853 25.19 4.6 40.3 54 -3.9 24.9
16:35 1024 30.24 853 25.19 4.7 40.5 52 -4.2 24.4
16:40 1024 30.24 853 25.19 4.8 40.7 52 -4.1 24.6
16:45 1024 30.24 854 25.22 4.9 40.8 52 -4.2 24.5
16:50 1024 30.24 854 25.22 4.9 40.8 51 -4.4 24.1
16:55 1024 30.24 854 25.22 4.9 40.8 50 -4.6 23.8
17:00 1024 30.24 854 25.22 4.9 40.9 51 -4.2 24.4
17:05 1024 30.24 854 25.22 4.9 40.8 51 -4.4 24.1
17:10 1024 30.24 854 25.22 4.8 40.7 52 -4.3 24.2
17:15 1025 30.27 854 25.22 4.8 40.6 52 -4.2 24.4
17:20 1025 30.27 854 25.22 4.6 40.3 53 -4 24.7
17:25 1025 30.27 854 25.22 4.3 39.7 55 -4.1 24.7
17:30 1025 30.27 854 25.22 3.7 38.6 56 -4.2 24.4
17:35 1025 30.27 854 25.22 3.4 38.2 56 -4.5 24
17:40 1025 30.27 854 25.22 3.4 38.1 56 -4.7 23.6
17:45 1025 30.27 854 25.22 2.7 36.9 58 -4.7 23.6
17:50 1025 30.27 854 25.22 2.4 36.4 58 -5.1 22.9
17:55 1025 30.27 854 25.22 2.9 37.2 55 -5.3 22.5
18:00 1025 30.27 854 25.22 3 37.5 55 -5.2 22.7
18:05 1025 30.27 854 25.22 3.3 37.9 55 -4.9 23.3
18:10 1025 30.27 854 25.22 3.2 37.8 54 -5.2 22.6
18:15 1025 30.27 854 25.22 3.3 37.9 54 -5.2 22.7
18:20 1025 30.27 854 25.22 3.4 38.1 53 -5.3 22.5
18:25 1025 30.27 854 25.22 3.6 38.4 53 -5 23
18:30 1025 30.27 854 25.22 3.4 38.2 55 -4.8 23.3
18:35 1025 30.27 854 25.22 3.5 38.2 52 -5.5 22.1
18:40 1025 30.27 854 25.22 3.9 39 51 -5.2 22.6
18:45 1025 30.27 854 25.22 4.1 39.4 52 -5 23.1
18:50 1025 30.27 854 25.22 3.7 38.7 54 -4.7 23.5
18:55 1025 30.27 855 25.25 2.9 37.2 58 -4.6 23.8
19:00 1026 30.3 855 25.25 2.5 36.6 58 -5 23
19:05 1026 30.3 855 25.25 2.5 36.6 57 -5.2 22.7
19:10 1026 30.3 855 25.25 2.3 36.1 57 -5.4 22.3
19:15 1026 30.3 855 25.25 2.5 36.4 56 -5.4 22.3
19:20 1026 30.3 855 25.25 2.9 37.3 54 -5.5 22.1
19:25 1026 30.3 855 25.25 3.6 38.5 52 -5.4 22.3
19:30 1026 30.3 855 25.25 3.9 39 51 -5.4 22.3
19:35 1026 30.3 855 25.25 4 39.2 51 -5.2 22.7
19:40 1026 30.3 856 25.28 4 39.2 51 -5.2 22.7
19:45 1026 30.3 856 25.28 4 39.2 51 -5.1 22.8
19:50 1026 30.3 856 25.28 3.8 38.9 52 -5.1 22.8
19:55 1027 30.33 856 25.28 3.4 38.1 55 -4.9 23.2
20:00 1027 30.33 856 25.28 2.5 36.4 58 -5 22.9
20:05 1027 30.33 856 25.28 1.6 34.9 61 -5.2 22.7
20:10 1027 30.33 856 25.28 1.6 34.8 60 -5.4 22.3
20:15 1027 30.33 856 25.28 2 35.7 58 -5.5 22.1
20:20 1027 30.33 856 25.28 2.3 36.2 57 -5.4 22.3
20:25 1027 30.33 856 25.28 2.4 36.4 56 -5.4 22.4
20:30 1027 30.33 856 25.28 2.2 36 57 -5.4 22.3
20:35 1027 30.33 856 25.28 1.7 35 60 -5.3 22.5
20:40 1027 30.33 856 25.28 1.5 34.8 59 -5.7 21.8
20:45 1027 30.33 856 25.28 1.6 34.9 60 -5.4 22.3
20:50 1027 30.33 856 25.28 1.9 35.4 57 -5.7 21.8
20:55 1027 30.33 856 25.28 2.1 35.7 57 -5.6 21.9
21:00 1027 30.33 856 25.28 2.4 36.4 56 -5.5 22.1
21:05 1027 30.33 856 25.28 2.8 37 54 -5.6 21.9
21:10 1027 30.33 856 25.28 2.7 36.9 56 -5.2 22.6
21:15 1027 30.33 856 25.28 2.4 36.3 56 -5.5 22.1
21:20 1027 30.33 856 25.28 2.6 36.6 55 -5.5 22.1
21:25 1027 30.33 856 25.28 2.1 35.9 57 -5.5 22.2
21:30 1027 30.33 856 25.28 1.9 35.4 58 -5.4 22.2
21:35 1027 30.33 856 25.28 1.8 35.2 58 -5.7 21.7
21:40 1027 30.33 856 25.28 2.1 35.8 57 -5.5 22.1
21:45 1027 30.33 856 25.28 2.3 36.2 56 -5.6 21.9
21:50 1027 30.33 856 25.28 2.3 36.2 56 -5.6 21.9
21:55 1027 30.33 857 25.31 2.1 35.8 56 -5.7 21.8
22:00 1027 30.33 856 25.28 2.3 36.1 55 -5.8 21.6
22:05 1027 30.33 856 25.28 2.1 35.7 57 -5.7 21.8
22:10 1027 30.33 856 25.28 1.9 35.5 58 -5.5 22.1
22:15 1027 30.33 857 25.31 0.8 33.5 63 -5.5 22.1
22:20 1027 30.33 857 25.31 0.7 33.3 61 -6.1 21.1
22:25 1027 30.33 856 25.28 1.2 34.1 61 -5.4 22.2
22:30 1027 30.33 856 25.28 1.4 34.6 60 -5.5 22
22:35 1027 30.33 856 25.28 1.3 34.4 60 -5.7 21.8
22:40 1027 30.33 856 25.28 0.9 33.7 62 -5.6 21.9
22:45 1027 30.33 857 25.31 0.7 33.2 61 -6 21.2
22:50 1027 30.33 856 25.28 0.5 32.9 64 -5.5 22.1
22:55 1027 30.33 856 25.28 0.5 33 61 -6 21.1
23:00 1027 30.33 856 25.28 0.1 32.1 66 -5.6 21.9
23:05 1027 30.33 857 25.31 -0 32 64 -6 21.1
23:10 1027 30.33 857 25.31 0.1 32.2 64 -6 21.2
23:15 1027 30.33 857 25.31 0.1 32.3 64 -5.9 21.4
23:20 1027 30.33 857 25.31 0.2 32.4 63 -5.9 21.4
23:25 1027 30.33 856 25.28 0.2 32.4 64 -5.9 21.4
23:30 1027 30.33 857 25.31 0.3 32.6 63 -6 21.2
23:35 1027 30.33 856 25.28 0.5 32.9 63 -5.8 21.6
23:40 1027 30.33 856 25.28 0.4 32.7 63 -5.9 21.4
23:45 1027 30.33 856 25.28 0.7 33.2 61 -6 21.1
23:50 1027 30.33 856 25.28 0.6 33.1 62 -5.8 21.6
23:55 1027 30.33 856 25.28 0.4 32.8 66 -5.2 22.7
24:00 1027 30.33 856 25.28 0.3 32.6 64 -5.6 21.9